Sugar Grove, Illinois
Current Conditions -  °F | °C
As of 5:29 AM on Saturday 25 Oct 2014 (Local Time) from KARR Reporting Station
Haze Haze  
Wind Chill: 58°   Ceiling: 1000
Heat Index: 58°   Visibility: 4mi
Dew Point: 55°   Wind: 5mph
Humidity: 90%   Direction: 300°WNW
Pressure: 29.93"   Gusts: NA
Location:  41.76°N, 88.44°W
Report Text: KARR 251029Z AUTO 30004KT 4SM BR OVC010 14/13 A2993 RMK AO2 CIG 007V012 T01440128
Loading
Personal Weather Stations






























Interactive Weather Map
Tropical Storm Tracking
New forecast layout! Learn more

10-Day Weather Forecast

Advertisements
Track Severe Weather on mobile